Time;durP1;ratioP1;P1;durP2;ratioP2;P2;SDS_P1;SDS_P2;PMS_P1;PMS_P2;Temp;Humidity;BMP_temperature;BMP_pressure;BME280_temperature;BME280_humidity;BME280_pressure;Samples;Min_cycle;Max_cycle;Signal;HPM_P1;HPM_P2
2021/03/16 00:02:05;;;;;;;10.48;3.47;;;;;;;;;;5178284;27;20187;-56
2021/03/16 00:04:32;;;;;;;18.42;4.13;;;;;;;;;;5171807;27;20200;-52
2021/03/16 00:07:04;;;;;;;14.95;4.60;;;;;;;;;;5159115;27;20221;-52
2021/03/16 00:09:35;;;;;;;13.50;4.47;;;;;;;;;;5163595;27;20326;-56
2021/03/16 00:12:06;;;;;;;23.58;4.25;;;;;;;;;;5170320;27;20215;-54
2021/03/16 00:14:46;;;;;;;21.35;5.00;;;;;;;;;;5178689;27;20195;-56
2021/03/16 00:17:13;;;;;;;21.02;5.65;;;;;;;;;;5156178;27;20218;-55
2021/03/16 00:19:40;;;;;;;20.88;7.25;;;;;;;;;;5157678;27;20200;-55
2021/03/16 00:25:12;;;;;;;18.30;5.10;;;;;;;;;;5171877;27;20294;-46
2021/03/16 00:27:38;;;;;;;15.95;5.47;;;;;;;;;;5178425;27;20228;-47
2021/03/16 00:30:21;;;;;;;13.35;3.85;;;;;;;;;;5178682;27;20242;-48
2021/03/16 00:32:56;;;;;;;16.73;6.57;;;;;;;;;;5177627;27;20199;-54
2021/03/16 00:35:24;;;;;;;15.05;4.03;;;;;;;;;;5178979;27;20271;-53
2021/03/16 00:38:11;;;;;;;23.10;5.15;;;;;;;;;;5178754;27;20187;-52
2021/03/16 00:40:39;;;;;;;16.13;3.85;;;;;;;;;;5179350;27;20197;-55
2021/03/16 00:43:07;;;;;;;18.10;6.05;;;;;;;;;;5179224;27;20244;-56
2021/03/16 00:45:43;;;;;;;15.90;3.83;;;;;;;;;;5186660;27;20186;-58
2021/03/16 00:48:15;;;;;;;22.20;5.85;;;;;;;;;;5197474;27;20226;-53
2021/03/16 00:50:42;;;;;;;19.23;4.35;;;;;;;;;;5196469;27;20230;-56
2021/03/16 00:53:08;;;;;;;16.80;3.90;;;;;;;;;;5177422;27;20203;-57
2021/03/16 00:55:35;;;;;;;16.10;4.13;;;;;;;;;;5196048;27;20195;-56
2021/03/16 00:58:15;;;;;;;20.13;5.13;;;;;;;;;;5192393;27;20218;-51
2021/03/16 01:00:43;;;;;;;15.93;4.72;;;;;;;;;;5188240;27;20198;-49
2021/03/16 01:03:09;;;;;;;29.08;5.88;;;;;;;;;;5195975;27;20208;-50
2021/03/16 01:05:50;;;;;;;27.17;5.32;;;;;;;;;;5198609;27;20202;-57
2021/03/16 01:08:17;;;;;;;15.38;3.65;;;;;;;;;;5179992;27;20248;-50
2021/03/16 01:10:45;;;;;;;19.98;5.00;;;;;;;;;;5172851;27;20219;-49
2021/03/16 01:13:25;;;;;;;21.90;3.45;;;;;;;;;;5157052;28;20212;-57
2021/03/16 01:15:54;;;;;;;18.75;4.13;;;;;;;;;;5157100;27;20195;-50
2021/03/16 01:18:21;;;;;;;19.08;3.92;;;;;;;;;;5157798;27;20184;-51
2021/03/16 01:20:53;;;;;;;14.10;3.90;;;;;;;;;;5166322;27;20256;-48
2021/03/16 01:23:20;;;;;;;28.08;4.32;;;;;;;;;;5173107;27;20214;-53
2021/03/16 01:25:47;;;;;;;24.42;4.68;;;;;;;;;;5156033;28;20204;-53
2021/03/16 01:28:28;;;;;;;18.25;4.60;;;;;;;;;;5156055;28;20406;-55
2021/03/16 01:30:56;;;;;;;14.82;5.00;;;;;;;;;;5164936;27;20231;-52
2021/03/16 01:33:23;;;;;;;16.30;4.20;;;;;;;;;;5158961;27;20195;-51
2021/03/16 01:35:59;;;;;;;18.48;4.18;;;;;;;;;;5171612;27;20200;-52
2021/03/16 01:38:26;;;;;;;9.77;3.25;;;;;;;;;;5156401;27;20192;-51
2021/03/16 01:40:53;;;;;;;11.93;3.20;;;;;;;;;;5170380;27;20225;-52
2021/03/16 01:43:38;;;;;;;16.30;4.10;;;;;;;;;;5158689;27;20218;-56
2021/03/16 01:46:06;;;;;;;12.70;3.90;;;;;;;;;;5138700;28;20211;-52
2021/03/16 01:48:33;;;;;;;15.90;3.83;;;;;;;;;;5156710;27;20287;-51
2021/03/16 01:51:12;;;;;;;16.45;3.40;;;;;;;;;;5156638;27;20216;-52
2021/03/16 01:53:40;;;;;;;13.32;4.38;;;;;;;;;;5166481;27;20207;-54
2021/03/16 01:56:07;;;;;;;12.68;3.47;;;;;;;;;;5161323;27;20192;-56
2021/03/16 01:58:34;;;;;;;14.48;3.70;;;;;;;;;;5156771;27;20267;-54
2021/03/16 02:01:02;;;;;;;22.95;3.85;;;;;;;;;;5155874;27;20219;-54
2021/03/16 02:03:29;;;;;;;17.73;3.72;;;;;;;;;;5160212;27;20204;-53
2021/03/16 02:06:11;;;;;;;19.58;3.95;;;;;;;;;;5165617;27;20192;-50
2021/03/16 02:08:43;;;;;;;25.23;4.13;;;;;;;;;;5163443;27;20206;-52
2021/03/16 02:11:15;;;;;;;26.33;4.35;;;;;;;;;;5180743;27;20195;-50
2021/03/16 02:14:05;;;;;;;12.65;3.25;;;;;;;;;;5180625;27;20191;-49
2021/03/16 02:16:35;;;;;;;18.15;3.03;;;;;;;;;;5159309;27;20209;-54
2021/03/16 02:19:03;;;;;;;9.50;3.65;;;;;;;;;;5175609;27;20207;-46
2021/03/16 02:21:31;;;;;;;8.65;2.88;;;;;;;;;;5180821;27;20183;-54
2021/03/16 02:24:10;;;;;;;14.38;4.07;;;;;;;;;;5180391;27;20210;-57
2021/03/16 02:26:48;;;;;;;12.40;4.20;;;;;;;;;;5180328;27;20190;-54
2021/03/16 02:29:18;;;;;;;12.13;3.83;;;;;;;;;;5174531;27;20199;-52
2021/03/16 02:31:47;;;;;;;7.25;2.75;;;;;;;;;;5161587;27;20196;-49
2021/03/16 02:34:16;;;;;;;20.42;3.45;;;;;;;;;;5165490;27;20227;-54
2021/03/16 02:36:44;;;;;;;9.88;2.78;;;;;;;;;;5159367;27;20184;-51
2021/03/16 02:39:19;;;;;;;18.20;4.38;;;;;;;;;;5159643;27;20212;-53
2021/03/16 02:41:48;;;;;;;27.40;13.50;;;;;;;;;;5160341;27;20207;-51
2021/03/16 02:44:16;;;;;;;10.32;3.20;;;;;;;;;;5159544;27;20201;-53
2021/03/16 02:46:43;;;;;;;9.73;3.05;;;;;;;;;;5169321;27;20191;-56
2021/03/16 02:49:11;;;;;;;16.85;3.75;;;;;;;;;;5179926;27;20214;-53
2021/03/16 02:51:45;;;;;;;20.63;5.43;;;;;;;;;;5179844;27;20222;-50
2021/03/16 02:54:12;;;;;;;10.50;3.10;;;;;;;;;;5180095;27;20186;-53
2021/03/16 02:56:40;;;;;;;18.08;3.03;;;;;;;;;;5179905;27;20330;-51
2021/03/16 02:59:10;;;;;;;24.98;3.75;;;;;;;;;;5179659;27;20202;-51
2021/03/16 03:01:39;;;;;;;13.23;3.50;;;;;;;;;;5179765;27;20255;-50
2021/03/16 03:04:08;;;;;;;17.77;4.53;;;;;;;;;;5179360;27;20188;-50
2021/03/16 03:09:39;;;;;;;13.65;3.08;;;;;;;;;;5166198;27;20241;-51
2021/03/16 03:12:07;;;;;;;13.77;3.03;;;;;;;;;;5157865;27;20225;-55
2021/03/16 03:14:45;;;;;;;13.10;2.90;;;;;;;;;;5158821;27;20188;-55
2021/03/16 03:17:12;;;;;;;22.73;3.92;;;;;;;;;;5159933;27;20197;-54
2021/03/16 03:19:39;;;;;;;20.75;4.10;;;;;;;;;;5178847;27;20210;-52
2021/03/16 03:22:12;;;;;;;19.73;4.22;;;;;;;;;;5152204;27;20560;-51
2021/03/16 03:24:45;;;;;;;15.02;3.72;;;;;;;;;;5137927;28;20196;-55
2021/03/16 03:27:17;;;;;;;9.50;3.00;;;;;;;;;;5145982;27;20219;-53
2021/03/16 03:29:45;;;;;;;22.10;4.30;;;;;;;;;;5158036;27;20249;-57
2021/03/16 03:32:15;;;;;;;17.85;4.15;;;;;;;;;;5158604;27;20169;-51
2021/03/16 03:37:47;;;;;;;23.13;4.43;;;;;;;;;;5155803;27;20215;-58
2021/03/16 03:40:14;;;;;;;12.65;2.63;;;;;;;;;;5158275;27;20214;-55
2021/03/16 03:42:51;;;;;;;25.60;4.28;;;;;;;;;;5158004;27;20257;-52
2021/03/16 03:45:20;;;;;;;15.57;3.92;;;;;;;;;;5158589;27;20187;-54
2021/03/16 03:47:50;;;;;;;12.57;3.30;;;;;;;;;;5158278;27;20203;-47
2021/03/16 03:50:21;;;;;;;10.30;2.95;;;;;;;;;;5158539;27;20273;-59
2021/03/16 03:52:48;;;;;;;18.20;3.40;;;;;;;;;;5158559;27;20210;-52
2021/03/16 03:55:15;;;;;;;9.75;2.33;;;;;;;;;;5157164;27;20201;-55
2021/03/16 03:57:43;;;;;;;21.85;3.58;;;;;;;;;;5157319;27;20280;-59
2021/03/16 04:00:12;;;;;;;18.23;4.18;;;;;;;;;;5157826;27;20200;-56
2021/03/16 04:02:40;;;;;;;9.55;2.30;;;;;;;;;;5157163;27;20221;-53
2021/03/16 04:05:08;;;;;;;18.70;3.40;;;;;;;;;;5156791;27;20287;-51
2021/03/16 04:07:54;;;;;;;9.90;2.58;;;;;;;;;;5157120;27;20208;-53
2021/03/16 04:10:28;;;;;;;14.30;3.50;;;;;;;;;;5157632;27;20223;-56
2021/03/16 04:12:55;;;;;;;15.38;3.10;;;;;;;;;;5157538;27;20200;-52
2021/03/16 04:15:22;;;;;;;10.93;4.10;;;;;;;;;;5156935;27;20200;-56
2021/03/16 04:17:50;;;;;;;20.77;3.58;;;;;;;;;;5157491;27;20210;-54
2021/03/16 04:20:18;;;;;;;17.20;4.68;;;;;;;;;;5156631;27;20180;-59
2021/03/16 04:22:44;;;;;;;11.48;2.80;;;;;;;;;;5156875;27;20233;-53
2021/03/16 04:25:12;;;;;;;18.85;2.42;;;;;;;;;;5156010;27;20319;-56
2021/03/16 04:27:39;;;;;;;11.70;2.75;;;;;;;;;;5156986;27;20199;-53
2021/03/16 04:30:07;;;;;;;19.95;3.60;;;;;;;;;;5156556;27;20249;-54
2021/03/16 04:32:33;;;;;;;18.85;3.40;;;;;;;;;;5156030;27;20219;-56
2021/03/16 04:35:01;;;;;;;17.92;3.92;;;;;;;;;;5156278;27;20196;-52
2021/03/16 04:37:44;;;;;;;20.70;4.13;;;;;;;;;;5156401;27;20187;-58
2021/03/16 04:40:12;;;;;;;10.57;2.80;;;;;;;;;;5135283;28;20202;-51
2021/03/16 04:42:39;;;;;;;25.00;3.97;;;;;;;;;;5136573;28;20199;-60
2021/03/16 04:45:12;;;;;;;12.75;3.35;;;;;;;;;;5128198;28;20205;-53
2021/03/16 04:47:38;;;;;;;15.30;4.00;;;;;;;;;;5115228;28;20268;-51
2021/03/16 04:50:08;;;;;;;11.73;3.50;;;;;;;;;;5115622;28;20225;-53
2021/03/16 04:52:35;;;;;;;10.23;2.97;;;;;;;;;;5114985;28;20178;-55
2021/03/16 04:55:07;;;;;;;12.43;4.15;;;;;;;;;;5115232;28;20194;-53
2021/03/16 04:57:34;;;;;;;13.10;3.28;;;;;;;;;;5117544;28;20200;-55
2021/03/16 05:00:03;;;;;;;9.73;3.10;;;;;;;;;;5114799;28;20198;-55
2021/03/16 05:02:30;;;;;;;15.52;3.20;;;;;;;;;;5132752;28;20204;-56
2021/03/16 05:04:57;;;;;;;16.95;3.47;;;;;;;;;;5121257;28;20185;-53
2021/03/16 05:07:38;;;;;;;14.02;4.95;;;;;;;;;;5115528;28;20257;-58
2021/03/16 05:10:08;;;;;;;22.02;5.03;;;;;;;;;;5115234;28;20221;-54
2021/03/16 05:12:34;;;;;;;9.02;2.50;;;;;;;;;;5115347;28;20212;-54
2021/03/16 05:15:05;;;;;;;12.20;2.78;;;;;;;;;;5135253;28;20277;-58
2021/03/16 05:17:32;;;;;;;14.07;4.93;;;;;;;;;;5121880;28;20224;-57
2021/03/16 05:20:12;;;;;;;12.73;3.40;;;;;;;;;;5119871;28;20192;-51
2021/03/16 05:22:39;;;;;;;18.30;3.45;;;;;;;;;;5106535;28;20209;-53
2021/03/16 05:25:07;;;;;;;23.67;7.57;;;;;;;;;;5115443;28;20181;-56
2021/03/16 05:30:40;;;;;;;10.77;3.20;;;;;;;;;;5103704;28;20208;-56
2021/03/16 05:33:07;;;;;;;11.40;3.08;;;;;;;;;;5113020;28;20189;-51
2021/03/16 05:38:41;;;;;;;15.50;4.82;;;;;;;;;;5156968;27;20237;-55
2021/03/16 05:41:08;;;;;;;14.95;4.10;;;;;;;;;;5161045;27;20191;-56
2021/03/16 05:43:42;;;;;;;26.02;4.22;;;;;;;;;;5160711;27;20184;-58
2021/03/16 05:46:09;;;;;;;18.25;3.38;;;;;;;;;;5145171;27;20546;-56
2021/03/16 05:48:41;;;;;;;11.75;2.50;;;;;;;;;;5145088;27;20220;-56
2021/03/16 05:51:18;;;;;;;10.93;2.60;;;;;;;;;;5149443;27;20419;-56
2021/03/16 05:53:47;;;;;;;22.63;4.90;;;;;;;;;;5154893;27;20184;-60
2021/03/16 05:56:17;;;;;;;13.77;3.33;;;;;;;;;;5138829;27;20200;-60
2021/03/16 05:58:49;;;;;;;17.50;4.93;;;;;;;;;;5157249;27;20176;-51
2021/03/16 06:01:18;;;;;;;15.95;3.50;;;;;;;;;;5142589;27;20203;-57
2021/03/16 06:03:47;;;;;;;13.38;4.75;;;;;;;;;;5153186;27;20195;-57
2021/03/16 06:06:19;;;;;;;14.13;3.28;;;;;;;;;;5153497;27;20252;-58
2021/03/16 06:08:46;;;;;;;9.05;3.00;;;;;;;;;;5150944;27;20199;-51
2021/03/16 06:11:13;;;;;;;18.52;3.35;;;;;;;;;;5142923;27;20222;-53
2021/03/16 06:13:53;;;;;;;22.67;4.40;;;;;;;;;;5159086;27;20257;-52
2021/03/16 06:16:21;;;;;;;14.90;3.20;;;;;;;;;;5159760;27;20273;-58
2021/03/16 06:18:49;;;;;;;11.40;3.70;;;;;;;;;;5158026;27;20200;-58
2021/03/16 06:21:22;;;;;;;12.25;3.83;;;;;;;;;;5159174;27;20247;-54
2021/03/16 06:23:53;;;;;;;13.85;4.05;;;;;;;;;;5159509;27;20213;-55
2021/03/16 06:26:44;;;;;;;19.60;5.68;;;;;;;;;;5150889;27;20183;-55
2021/03/16 06:29:12;;;;;;;21.77;4.03;;;;;;;;;;5142482;27;20199;-58
2021/03/16 06:31:45;;;;;;;15.60;3.95;;;;;;;;;;5157869;27;20219;-61
2021/03/16 06:34:24;;;;;;;16.73;3.92;;;;;;;;;;5146198;27;20215;-60
2021/03/16 06:36:57;;;;;;;14.68;4.35;;;;;;;;;;5159236;27;20192;-54
2021/03/16 06:39:24;;;;;;;19.70;4.88;;;;;;;;;;5158336;27;20219;-51
2021/03/16 06:41:58;;;;;;;14.88;3.80;;;;;;;;;;5153129;27;20201;-53
2021/03/16 06:44:26;;;;;;;17.70;3.50;;;;;;;;;;5139105;27;20185;-57
2021/03/16 06:46:57;;;;;;;15.00;4.32;;;;;;;;;;5146886;27;20191;-55
2021/03/16 06:52:28;;;;;;;17.40;4.40;;;;;;;;;;5157611;27;20217;-60
2021/03/16 06:54:56;;;;;;;9.57;4.05;;;;;;;;;;5150125;27;20185;-59
2021/03/16 06:58:03;;;;;;;13.00;3.55;;;;;;;;;;5138660;27;20215;-58
2021/03/16 07:00:33;;;;;;;18.10;4.10;;;;;;;;;;5155285;27;20277;-58
2021/03/16 07:03:00;;;;;;;10.18;2.85;;;;;;;;;;5156960;27;20192;-52
2021/03/16 07:05:28;;;;;;;9.48;3.75;;;;;;;;;;5156644;27;20203;-55
2021/03/16 07:07:56;;;;;;;12.57;3.40;;;;;;;;;;5158187;27;20256;-59
2021/03/16 07:13:26;;;;;;;16.67;4.00;;;;;;;;;;5136781;28;20188;-56
2021/03/16 07:15:56;;;;;;;15.45;3.38;;;;;;;;;;5144482;27;20184;-59
2021/03/16 07:18:41;;;;;;;14.90;4.03;;;;;;;;;;5157253;27;20200;-58
2021/03/16 07:21:10;;;;;;;14.73;4.57;;;;;;;;;;5157214;27;20192;-58
2021/03/16 07:23:39;;;;;;;17.70;3.58;;;;;;;;;;5157401;27;20203;-54
2021/03/16 07:26:08;;;;;;;15.77;3.03;;;;;;;;;;5157628;27;20212;-57
2021/03/16 07:28:39;;;;;;;19.83;6.45;;;;;;;;;;5158034;27;20202;-53
2021/03/16 07:31:07;;;;;;;9.40;3.50;;;;;;;;;;5157917;27;20246;-57
2021/03/16 07:34:05;;;;;;;9.27;3.58;;;;;;;;;;5157992;27;20230;-55
2021/03/16 07:36:32;;;;;;;7.93;2.75;;;;;;;;;;5138113;27;20220;-57
2021/03/16 07:38:59;;;;;;;8.07;3.25;;;;;;;;;;5154673;27;20184;-52
2021/03/16 07:41:27;;;;;;;27.60;3.60;;;;;;;;;;5156984;27;20222;-56
2021/03/16 07:44:02;;;;;;;16.85;2.50;;;;;;;;;;5156006;27;20231;-54
2021/03/16 07:46:41;;;;;;;14.90;2.72;;;;;;;;;;5155971;27;20207;-56
2021/03/16 07:49:08;;;;;;;8.32;2.13;;;;;;;;;;5156740;27;20195;-57
2021/03/16 07:51:42;;;;;;;18.33;3.15;;;;;;;;;;5155369;27;20275;-58
2021/03/16 07:54:10;;;;;;;18.92;3.05;;;;;;;;;;5156232;27;20192;-55
2021/03/16 07:56:37;;;;;;;16.38;3.10;;;;;;;;;;5156339;27;20184;-56
2021/03/16 07:59:05;;;;;;;14.63;3.97;;;;;;;;;;5155190;27;20234;-51
2021/03/16 08:01:32;;;;;;;17.20;4.95;;;;;;;;;;5156407;27;20229;-59
2021/03/16 08:04:07;;;;;;;13.70;3.45;;;;;;;;;;5156511;27;20180;-52
2021/03/16 08:06:36;;;;;;;20.45;5.45;;;;;;;;;;5155193;27;20207;-54
2021/03/16 08:09:04;;;;;;;10.88;2.78;;;;;;;;;;5156176;27;20207;-54
2021/03/16 08:11:38;;;;;;;16.40;4.60;;;;;;;;;;5150360;27;20232;-51
2021/03/16 08:14:05;;;;;;;27.00;4.47;;;;;;;;;;5135892;28;20189;-55
2021/03/16 08:16:46;;;;;;;14.75;3.13;;;;;;;;;;5135594;27;20192;-53
2021/03/16 08:19:15;;;;;;;10.05;3.08;;;;;;;;;;5138452;27;20192;-55
2021/03/16 08:21:42;;;;;;;11.32;2.55;;;;;;;;;;5156022;27;20216;-50
2021/03/16 08:24:34;;;;;;;8.50;2.95;;;;;;;;;;5156574;27;20196;-54
2021/03/16 08:27:01;;;;;;;11.68;3.35;;;;;;;;;;5155436;27;20304;-54
2021/03/16 08:29:33;;;;;;;10.13;2.92;;;;;;;;;;5155622;27;20215;-56
2021/03/16 08:32:01;;;;;;;13.05;3.67;;;;;;;;;;5140956;27;20242;-56
2021/03/16 08:34:30;;;;;;;7.25;3.50;;;;;;;;;;5155321;27;20211;-55
2021/03/16 08:37:03;;;;;;;9.98;2.83;;;;;;;;;;5155816;27;20198;-56
2021/03/16 08:39:31;;;;;;;11.48;3.42;;;;;;;;;;5155400;27;20257;-56
2021/03/16 08:41:59;;;;;;;14.77;4.15;;;;;;;;;;5147270;27;20239;-53
2021/03/16 08:44:28;;;;;;;18.83;5.18;;;;;;;;;;5155437;27;20191;-55
2021/03/16 08:46:56;;;;;;;14.15;3.92;;;;;;;;;;5152514;27;20231;-55
2021/03/16 08:49:24;;;;;;;15.82;3.10;;;;;;;;;;5152410;27;20218;-56
2021/03/16 08:51:53;;;;;;;20.23;3.83;;;;;;;;;;5154490;28;20291;-56
2021/03/16 08:54:24;;;;;;;10.98;3.25;;;;;;;;;;5156665;27;20222;-55
2021/03/16 08:56:51;;;;;;;13.13;3.63;;;;;;;;;;5171480;27;20201;-56
2021/03/16 08:59:25;;;;;;;18.15;5.05;;;;;;;;;;5197564;27;20170;-57
2021/03/16 09:01:52;;;;;;;11.95;3.83;;;;;;;;;;5176149;27;20187;-54
2021/03/16 09:04:20;;;;;;;8.20;2.65;;;;;;;;;;5175948;27;20338;-60
2021/03/16 09:06:56;;;;;;;11.35;3.25;;;;;;;;;;5154733;28;20253;-56
2021/03/16 09:09:24;;;;;;;13.88;3.78;;;;;;;;;;5154301;28;20195;-61
2021/03/16 09:11:51;;;;;;;17.45;3.75;;;;;;;;;;5162778;27;20231;-50
2021/03/16 09:14:36;;;;;;;13.97;3.63;;;;;;;;;;5179293;27;20206;-57
2021/03/16 09:17:03;;;;;;;10.43;3.47;;;;;;;;;;5179975;27;20449;-55
2021/03/16 09:19:32;;;;;;;9.73;2.92;;;;;;;;;;5161819;27;20451;-55
2021/03/16 09:22:10;;;;;;;6.50;2.40;;;;;;;;;;5179743;27;20230;-55
2021/03/16 09:24:37;;;;;;;10.23;2.60;;;;;;;;;;5178708;27;20211;-55
2021/03/16 09:27:06;;;;;;;10.83;3.10;;;;;;;;;;5163363;27;20464;-56
2021/03/16 09:29:54;;;;;;;10.10;3.60;;;;;;;;;;5181902;27;20436;-54
2021/03/16 09:32:36;;;;;;;9.15;2.88;;;;;;;;;;5177370;27;20195;-53
2021/03/16 09:35:04;;;;;;;11.65;3.58;;;;;;;;;;5193109;27;20198;-55
2021/03/16 09:37:40;;;;;;;7.72;3.45;;;;;;;;;;5172162;27;20256;-57
2021/03/16 09:40:09;;;;;;;8.60;2.35;;;;;;;;;;5169406;27;20527;-55
2021/03/16 09:42:38;;;;;;;10.38;3.17;;;;;;;;;;5178284;27;20227;-52
2021/03/16 09:45:07;;;;;;;7.57;3.20;;;;;;;;;;5178382;27;20206;-49
2021/03/16 09:47:41;;;;;;;10.38;2.97;;;;;;;;;;5177882;27;20191;-54
2021/03/16 09:50:09;;;;;;;7.32;3.13;;;;;;;;;;5168969;27;20196;-54
2021/03/16 09:52:38;;;;;;;11.30;3.67;;;;;;;;;;5171113;27;20210;-52
2021/03/16 09:55:11;;;;;;;8.15;3.00;;;;;;;;;;5177582;27;20507;-52
2021/03/16 09:57:39;;;;;;;15.68;3.88;;;;;;;;;;5178884;27;20207;-52
2021/03/16 10:00:08;;;;;;;7.95;3.22;;;;;;;;;;5177925;27;20210;-56
2021/03/16 10:02:36;;;;;;;22.02;6.65;;;;;;;;;;5168145;27;20215;-55
2021/03/16 10:05:29;;;;;;;12.10;2.73;;;;;;;;;;5170448;27;20200;-56
2021/03/16 10:08:28;;;;;;;10.83;3.17;;;;;;;;;;5177881;27;20437;-49
2021/03/16 10:10:55;;;;;;;12.25;2.65;;;;;;;;;;5177670;27;20473;-54
2021/03/16 10:13:29;;;;;;;8.63;3.17;;;;;;;;;;5177385;27;20195;-61
2021/03/16 10:15:56;;;;;;;18.93;3.53;;;;;;;;;;5169185;27;20448;-59
2021/03/16 10:18:27;;;;;;;11.73;3.63;;;;;;;;;;5177567;27;20436;-59
2021/03/16 10:20:54;;;;;;;8.53;2.60;;;;;;;;;;5177988;27;20452;-57
2021/03/16 10:23:25;;;;;;;10.80;2.80;;;;;;;;;;5174415;27;20472;-58
2021/03/16 10:26:04;;;;;;;8.33;2.40;;;;;;;;;;5169614;27;20215;-54
2021/03/16 10:28:35;;;;;;;14.37;2.23;;;;;;;;;;5176106;27;20467;-57
2021/03/16 10:31:12;;;;;;;16.63;3.27;;;;;;;;;;5177225;27;20468;-57
2021/03/16 10:33:40;;;;;;;10.20;3.10;;;;;;;;;;5177340;27;20452;-57
2021/03/16 10:36:23;;;;;;;12.60;2.90;;;;;;;;;;5174921;27;20480;-56
2021/03/16 10:38:50;;;;;;;11.70;2.63;;;;;;;;;;5176942;27;20587;-51
2021/03/16 10:44:56;;;;;;;19.90;3.10;;;;;;;;;;5175368;27;20423;-58
2021/03/16 10:47:23;;;;;;;23.70;3.77;;;;;;;;;;5175605;27;20464;-56
2021/03/16 10:49:51;;;;;;;13.63;3.33;;;;;;;;;;5176821;27;20448;-56
2021/03/16 10:52:18;;;;;;;20.90;3.60;;;;;;;;;;5175993;27;20484;-53
2021/03/16 10:54:50;;;;;;;11.80;3.10;;;;;;;;;;5180039;27;20563;-52
2021/03/16 10:57:17;;;;;;;10.03;3.13;;;;;;;;;;5175994;27;20456;-58
2021/03/16 10:59:46;;;;;;;13.97;3.33;;;;;;;;;;5173506;27;20444;-57
2021/03/16 11:02:19;;;;;;;13.53;5.33;;;;;;;;;;5176594;27;20466;-56
2021/03/16 11:04:59;;;;;;;14.40;3.80;;;;;;;;;;5176303;27;20448;-56
2021/03/16 11:07:26;;;;;;;11.93;2.80;;;;;;;;;;5185246;27;20439;-57
2021/03/16 11:10:18;;;;;;;7.30;3.27;;;;;;;;;;5155216;27;20479;-54
2021/03/16 11:12:46;;;;;;;15.50;3.13;;;;;;;;;;5160520;27;20472;-55
2021/03/16 11:15:15;;;;;;;9.23;3.50;;;;;;;;;;5175983;27;20444;-52
2021/03/16 11:18:01;;;;;;;8.30;2.00;;;;;;;;;;5187716;27;20443;-58
2021/03/16 11:20:28;;;;;;;6.57;2.90;;;;;;;;;;5186960;27;20452;-55
2021/03/16 11:22:55;;;;;;;14.43;2.20;;;;;;;;;;5175968;27;20440;-57
2021/03/16 11:25:30;;;;;;;6.53;2.33;;;;;;;;;;5178015;27;20437;-56
2021/03/16 11:27:57;;;;;;;13.13;4.67;;;;;;;;;;5173744;27;20444;-54
2021/03/16 11:30:34;;;;;;;8.10;2.50;;;;;;;;;;5176504;27;20451;-54
2021/03/16 11:33:01;;;;;;;17.70;3.93;;;;;;;;;;5161803;27;20469;-55
2021/03/16 11:35:28;;;;;;;8.95;2.83;;;;;;;;;;5174400;27;20452;-54
2021/03/16 11:38:10;;;;;;;5.82;2.50;;;;;;;;;;5175716;27;20206;-47
2021/03/16 11:40:39;;;;;;;6.03;3.50;;;;;;;;;;5176156;27;20248;-57
2021/03/16 11:43:05;;;;;;;9.38;3.05;;;;;;;;;;5176320;27;20247;-57
2021/03/16 11:45:33;;;;;;;9.68;3.33;;;;;;;;;;5175915;27;20199;-53
2021/03/16 11:48:00;;;;;;;8.45;2.45;;;;;;;;;;5164966;27;20196;-55
2021/03/16 11:50:29;;;;;;;12.63;4.20;;;;;;;;;;5175410;27;20276;-57
2021/03/16 11:53:01;;;;;;;7.78;4.43;;;;;;;;;;5176817;27;20176;-51
2021/03/16 11:55:28;;;;;;;11.40;3.40;;;;;;;;;;5176611;27;20234;-57
2021/03/16 11:57:56;;;;;;;8.65;3.58;;;;;;;;;;5175365;27;20565;-52
2021/03/16 12:00:24;;;;;;;9.25;1.95;;;;;;;;;;5177036;27;20235;-57
2021/03/16 12:02:52;;;;;;;8.02;1.83;;;;;;;;;;5175874;27;20211;-60
2021/03/16 12:05:19;;;;;;;11.30;2.83;;;;;;;;;;5170856;27;20307;-55
2021/03/16 12:07:54;;;;;;;8.80;2.25;;;;;;;;;;5176392;27;20183;-56
2021/03/16 12:10:20;;;;;;;10.23;3.00;;;;;;;;;;5176018;27;20227;-58
2021/03/16 12:12:47;;;;;;;8.05;2.70;;;;;;;;;;5176177;27;20275;-56
2021/03/16 12:15:16;;;;;;;5.15;2.25;;;;;;;;;;5176335;27;20217;-54
2021/03/16 12:17:42;;;;;;;6.03;2.80;;;;;;;;;;5175880;27;20207;-60
2021/03/16 12:20:21;;;;;;;6.28;2.08;;;;;;;;;;5166137;27;20200;-59
2021/03/16 12:22:59;;;;;;;11.87;4.00;;;;;;;;;;5165310;27;20185;-59
2021/03/16 12:25:26;;;;;;;11.98;5.07;;;;;;;;;;5175469;27;20464;-55
2021/03/16 12:27:55;;;;;;;11.53;3.43;;;;;;;;;;5171168;27;20204;-55
2021/03/16 12:30:22;;;;;;;14.90;2.60;;;;;;;;;;5168973;27;20460;-54
2021/03/16 12:32:49;;;;;;;14.57;3.37;;;;;;;;;;5171911;27;20449;-59
2021/03/16 12:35:35;;;;;;;13.00;2.83;;;;;;;;;;5162108;27;20466;-60
2021/03/16 12:38:03;;;;;;;13.85;4.45;;;;;;;;;;5176282;27;20456;-51
2021/03/16 12:40:31;;;;;;;10.20;2.97;;;;;;;;;;5176420;27;20234;-52
2021/03/16 12:45:44;;;;;;;8.83;2.90;;;;;;;;;;5154111;27;20246;-54
2021/03/16 12:48:13;;;;;;;8.88;3.25;;;;;;;;;;5149455;27;20449;-56
2021/03/16 12:50:42;;;;;;;11.82;3.30;;;;;;;;;;5155482;27;20234;-59
2021/03/16 12:53:19;;;;;;;12.63;3.95;;;;;;;;;;5156426;28;20222;-59
2021/03/16 12:55:46;;;;;;;12.65;4.00;;;;;;;;;;5153819;28;20221;-60
2021/03/16 12:58:17;;;;;;;9.60;4.60;;;;;;;;;;5137429;28;20196;-55
2021/03/16 13:00:44;;;;;;;11.93;4.65;;;;;;;;;;5134377;28;20204;-48
2021/03/16 13:03:11;;;;;;;10.03;4.10;;;;;;;;;;5149425;27;20211;-58
2021/03/16 13:05:45;;;;;;;7.50;3.90;;;;;;;;;;5148529;28;20458;-58
2021/03/16 13:08:14;;;;;;;16.70;4.80;;;;;;;;;;5151631;28;20242;-58
2021/03/16 13:10:42;;;;;;;11.07;4.63;;;;;;;;;;5152497;28;20216;-62
2021/03/16 13:13:11;;;;;;;18.48;7.25;;;;;;;;;;5133042;28;20215;-59
2021/03/16 13:15:39;;;;;;;12.30;5.90;;;;;;;;;;5145720;27;20188;-56
2021/03/16 13:18:29;;;;;;;11.20;5.72;;;;;;;;;;5138816;27;20216;-59
2021/03/16 13:20:59;;;;;;;17.02;6.43;;;;;;;;;;5147762;28;20357;-57
2021/03/16 13:23:25;;;;;;;10.93;5.47;;;;;;;;;;5154790;27;20198;-49
2021/03/16 13:25:53;;;;;;;10.27;5.45;;;;;;;;;;5154339;28;20289;-51
2021/03/16 13:28:19;;;;;;;11.82;5.93;;;;;;;;;;5152614;27;20220;-53
2021/03/16 13:30:46;;;;;;;7.60;5.47;;;;;;;;;;5156079;27;20211;-58
2021/03/16 13:33:16;;;;;;;9.75;7.00;;;;;;;;;;5156425;27;20196;-55
2021/03/16 13:35:43;;;;;;;19.17;5.78;;;;;;;;;;5156398;27;20203;-59
2021/03/16 13:38:12;;;;;;;8.05;4.75;;;;;;;;;;5142291;27;20226;-57
2021/03/16 13:41:04;;;;;;;12.07;5.20;;;;;;;;;;5141103;28;20199;-57
2021/03/16 13:43:34;;;;;;;10.40;5.05;;;;;;;;;;5151551;28;20252;-60
2021/03/16 13:46:01;;;;;;;7.45;4.22;;;;;;;;;;5155834;27;20193;-52
2021/03/16 13:51:32;;;;;;;8.50;3.30;;;;;;;;;;5154549;28;20527;-54
2021/03/16 13:54:07;;;;;;;9.30;3.93;;;;;;;;;;5148580;28;20453;-57
2021/03/16 13:56:43;;;;;;;7.10;3.10;;;;;;;;;;5152425;27;20517;-56
2021/03/16 13:59:12;;;;;;;14.30;4.27;;;;;;;;;;5147543;27;20461;-54
2021/03/16 14:01:39;;;;;;;10.00;3.60;;;;;;;;;;5139255;28;20450;-53
2021/03/16 14:04:09;;;;;;;18.27;4.20;;;;;;;;;;5156304;27;20429;-57
2021/03/16 14:06:36;;;;;;;8.43;3.80;;;;;;;;;;5158442;27;20496;-56
2021/03/16 14:09:05;;;;;;;12.83;4.70;;;;;;;;;;5158501;27;20504;-57
2021/03/16 14:11:32;;;;;;;8.50;3.37;;;;;;;;;;5158868;27;20485;-52
2021/03/16 14:14:21;;;;;;;9.10;3.43;;;;;;;;;;5159039;27;20449;-53
2021/03/16 14:17:05;;;;;;;8.77;3.03;;;;;;;;;;5141614;27;20443;-55
2021/03/16 14:19:32;;;;;;;8.13;2.80;;;;;;;;;;5152324;27;20441;-56
2021/03/16 14:22:02;;;;;;;8.60;2.80;;;;;;;;;;5147820;27;20510;-56
2021/03/16 14:24:45;;;;;;;10.90;3.90;;;;;;;;;;5143745;27;20453;-56
2021/03/16 14:27:12;;;;;;;8.50;3.47;;;;;;;;;;5153277;27;20548;-56
2021/03/16 14:29:40;;;;;;;2.70;1.63;;;;;;;;;;5153390;27;20841;-56
2021/03/16 14:32:24;;;;;;;4.80;1.85;;;;;;;;;;5150526;27;20501;-56
2021/03/16 14:34:51;;;;;;;4.30;1.70;;;;;;;;;;5157293;27;20223;-59
2021/03/16 14:37:17;;;;;;;8.43;3.17;;;;;;;;;;5140777;27;20449;-56
2021/03/16 14:39:56;;;;;;;4.13;2.55;;;;;;;;;;5153226;27;20208;-51
2021/03/16 14:42:23;;;;;;;8.10;3.08;;;;;;;;;;5157668;27;20215;-53
2021/03/16 14:44:50;;;;;;;6.78;3.10;;;;;;;;;;5156923;27;20187;-53
2021/03/16 14:47:40;;;;;;;6.10;3.40;;;;;;;;;;5157844;27;20207;-57
2021/03/16 14:50:07;;;;;;;9.30;4.38;;;;;;;;;;5158174;27;20199;-50
2021/03/16 14:52:35;;;;;;;6.28;3.00;;;;;;;;;;5167067;27;20223;-56
2021/03/16 14:55:20;;;;;;;11.85;4.20;;;;;;;;;;5165565;27;20192;-54
2021/03/16 14:57:46;;;;;;;4.32;2.70;;;;;;;;;;5157009;27;20203;-53
2021/03/16 15:00:14;;;;;;;9.82;3.30;;;;;;;;;;5157640;27;20179;-56
2021/03/16 15:02:56;;;;;;;5.15;3.00;;;;;;;;;;5156990;27;20188;-58
2021/03/16 15:05:24;;;;;;;6.18;4.00;;;;;;;;;;5155448;27;20196;-57
2021/03/16 15:07:52;;;;;;;6.53;3.25;;;;;;;;;;5157322;27;20196;-53
2021/03/16 15:10:39;;;;;;;8.35;4.93;;;;;;;;;;5155311;27;20196;-60
2021/03/16 15:13:06;;;;;;;9.18;4.65;;;;;;;;;;5165216;27;20218;-59
2021/03/16 15:15:33;;;;;;;11.70;4.90;;;;;;;;;;5176188;27;20199;-58
2021/03/16 15:17:59;;;;;;;7.22;4.07;;;;;;;;;;5175964;27;20341;-58
2021/03/16 15:20:26;;;;;;;9.43;3.38;;;;;;;;;;5176623;27;20489;-56
2021/03/16 15:23:06;;;;;;;8.18;4.32;;;;;;;;;;5176716;27;20228;-56
2021/03/16 15:25:33;;;;;;;8.40;4.53;;;;;;;;;;5177375;27;20194;-53
2021/03/16 15:28:14;;;;;;;7.18;4.80;;;;;;;;;;5177247;27;20349;-56